Flight Track Log - Related Links

Times and Time Zones

All times are in EST time to prevent confusion due to time zone crossing. See the SKW5631 flight status page for this flight to view local times or setup timezone preferences in your user account.

Time Position Orientation Groundspeed Altitude Reporting Facility
EST Latitude Longitude Course Direction KTS MPH feet Rate Location/Type
Fri 10:20:00 PM 37.6500 -122.3667 138° Southeast 161 185 1,000  Level Northern Cal TRACON
Fri 10:21:00 PM 37.7000 -122.3667 360° North 214 246 2,900 2,350 Climbing Northern Cal TRACON
Fri 10:22:00 PM 37.7000 -122.4500 270° West 284 327 5,700 2,600 Climbing Northern Cal TRACON
Fri 10:23:00 PM 37.2164 -121.8748 141° Southeast  Level Estimated
Fri 10:23:00 PM 37.6167 -122.4667 189° South 306 352 8,100  Level Northern Cal TRACON
Fri 10:24:00 PM 37.1154 -121.7505 135° Southeast  Level Estimated
Fri 10:24:00 PM 37.5333 -122.4833 189° South 316 364 10,800  Level Northern Cal TRACON
Fri 10:25:00 PM 37.0143 -121.6266 138° Southeast  Level Estimated
Fri 10:25:22 PM 37.4503 -122.3911 139° Southeast 330 380 13,000  Level Oakland Center
Fri 10:26:23 PM 37.3783 -122.3122 139° Southeast 344 396 14,900 1,770 Climbing Oakland Center
Fri 10:27:24 PM 37.3031 -122.2275 138° Southeast 361 415 16,600 1,574 Climbing Oakland Center
Fri 10:28:25 PM 37.2092 -122.1242 139° Southeast 375 432 18,100 1,574 Climbing Oakland Center
Fri 10:29:26 PM 37.1286 -122.0367 139° Southeast 383 441 19,800 1,525 Climbing Oakland Center
Fri 10:30:27 PM 37.0464 -121.9464 139° Southeast 392 451 21,200 1,279 Climbing Oakland Center
Fri 10:31:28 PM 36.9639 -121.8542 138° Southeast 398 458 22,400 1,131 Climbing Oakland Center
Fri 10:32:29 PM 36.8767 -121.7608 139° Southeast 411 473 23,500 1,033 Climbing Oakland Center
Fri 10:33:30 PM 36.7947 -121.6708 139° Southeast 415 478 24,500 738 Climbing Oakland Center
Fri 10:34:31 PM 36.7064 -121.5756 139° Southeast 420 483 25,000 246 Climbing Oakland Center
Fri 10:35:32 PM 36.6158 -121.4761 139° Southeast 431 496 25,000  Level Oakland Center
Fri 10:36:33 PM 36.5239 -121.3794 140° Southeast 434 499 25,000  Level Oakland Center
Fri 10:37:34 PM 36.4181 -121.2619 138° Southeast 428 493 25,000  Level Oakland Center
Fri 10:38:36 PM 36.3278 -121.1669 140° Southeast 425 489 25,000  Level Oakland Center
Fri 10:39:37 PM 36.2403 -121.0719 139° Southeast 421 484 25,000  Level Oakland Center
Fri 10:40:38 PM 36.1514 -120.9772 139° Southeast 422 486 25,000  Level Oakland Center
Fri 10:41:39 PM 36.0642 -120.8833 139° Southeast 418 481 25,000  Level Oakland Center
Fri 10:42:40 PM 35.9761 -120.7903 139° Southeast 417 480 25,000  Level Oakland Center
Fri 10:43:41 PM 35.8881 -120.6958 139° Southeast 420 483 25,000  Level Oakland Center
Fri 10:44:42 PM 35.7997 -120.6025 139° Southeast 420 483 25,000  Level Oakland Center
Fri 10:45:43 PM 35.7108 -120.5078 139° Southeast 422 486 25,000  Level Oakland Center
Fri 10:46:44 PM 35.6214 -120.4147 140° Southeast 420 483 25,000  Level Oakland Center
Fri 10:47:45 PM 35.5319 -120.3214 140° Southeast 418 481 25,000  Level Oakland Center
Fri 10:48:46 PM 35.4303 -120.2161 140° Southeast 420 483 25,000  Level Oakland Center
Fri 10:49:47 PM 35.3497 -120.1308 139° Southeast 421 484 25,000  Level Oakland Center
Fri 10:50:48 PM 35.2600 -120.0381 140° Southeast 419 482 25,000  Level Oakland Center
Fri 10:51:49 PM 35.1714 -119.9478 140° Southeast 415 478 25,000 -49 Level Oakland Center
Fri 10:52:50 PM 35.0833 -119.8533 139° Southeast 419 482 24,900 -197 Descending Oakland Center
Fri 10:53:51 PM 34.9917 -119.7272 132° Southeast 414 476 24,600 -1,279 Descending Oakland Center
Fri 10:54:52 PM 34.9119 -119.6217 133° Southeast 421 484 22,300 -2,262 Descending Oakland Center
Fri 10:55:53 PM 34.8317 -119.5133 132° Southeast 428 493 20,000 -1,920 Descending Oakland Center
Fri 10:56:32 PM 34.8008 -119.4692 130° Southeast 431 496 19,100 -2,100 Descending Los Angeles Center
Fri 10:57:33 PM 34.7056 -119.3433 133° Southeast 423 487 16,500 -2,293 Descending Los Angeles Center
Fri 10:58:35 PM 34.6325 -119.2439 132° Southeast 398 458 14,400 -2,244 Descending Los Angeles Center
Fri 10:59:36 PM 34.5533 -119.1428 134° Southeast 380 437 11,900 -1,707 Descending Los Angeles Center
Fri 11:00:38 PM 34.4906 -119.0569 132° Southeast 324 373 10,900 -976 Descending Los Angeles Center
Fri 11:01:39 PM 34.4381 -118.9817 130° Southeast 291 335 9,900 -1,171 Descending Los Angeles Center
Fri 11:02:41 PM 34.3914 -118.9075 127° Southeast 278 320 8,500 -1,171 Descending Los Angeles Center
Fri 11:03:42 PM 34.3506 -118.8406 126° Southeast 250 288 7,500 -927 Descending Los Angeles Center
Fri 11:04:44 PM 34.3119 -118.7850 130° Southeast 219 252 6,600 -976 Descending Los Angeles Center
Fri 11:05:45 PM 34.2692 -118.7206 129° Southeast 207 238 5,500 -878 Descending Los Angeles Center
Fri 11:06:47 PM 34.2356 -118.6644 126° Southeast 206 237 4,800 -634 Descending Los Angeles Center
Fri 11:07:48 PM 34.2092 -118.6067 119° Southeast 204 235 4,200 -661 Descending Los Angeles Center
Fri 11:08:45 PM 34.2000 -118.5500 101° East 189 217 3,500 -780 Descending Southern California TRACON
Fri 11:09:51 PM 34.2000 -118.4833 90° East 171 197 2,600 -744 Descending Southern California TRACON
Fri 11:10:46 PM 34.2000 -118.4333 90° East 145 167 2,000 -730 Descending Southern California TRACON
Fri 11:11:46 PM 34.2000 -118.3833 90° East 142 163 1,200 -800 Descending Southern California TRACON

Login

Don't have an account? Register now (free) for customized features, flight alerts, and more!